sensor_id;sensor_type;location;lat;lon;timestamp;temperature;humidity
68128;SHT30;54931;52.098;21.006;2022-07-29T00:01:50;13.63;78.31
68128;SHT30;54931;52.098;21.006;2022-07-29T00:04:18;13.63;78.31
68128;SHT30;54931;52.098;21.006;2022-07-29T00:06:46;13.63;78.32
68128;SHT30;54931;52.098;21.006;2022-07-29T00:09:13;13.61;78.39
68128;SHT30;54931;52.098;21.006;2022-07-29T00:11:40;13.56;78.57
68128;SHT30;54931;52.098;21.006;2022-07-29T00:14:08;13.49;78.63
68128;SHT30;54931;52.098;21.006;2022-07-29T00:16:35;13.53;78.65
68128;SHT30;54931;52.098;21.006;2022-07-29T00:19:03;13.60;78.47
68128;SHT30;54931;52.098;21.006;2022-07-29T00:21:30;13.59;78.48
68128;SHT30;54931;52.098;21.006;2022-07-29T00:23:58;13.52;78.53
68128;SHT30;54931;52.098;21.006;2022-07-29T00:26:25;13.44;78.65
68128;SHT30;54931;52.098;21.006;2022-07-29T00:28:54;13.40;78.69
68128;SHT30;54931;52.098;21.006;2022-07-29T00:31:21;13.40;78.75
68128;SHT30;54931;52.098;21.006;2022-07-29T00:33:48;13.41;78.74
68128;SHT30;54931;52.098;21.006;2022-07-29T00:36:15;13.39;78.86
68128;SHT30;54931;52.098;21.006;2022-07-29T00:38:42;13.36;79.11
68128;SHT30;54931;52.098;21.006;2022-07-29T00:41:12;13.38;79.16
68128;SHT30;54931;52.098;21.006;2022-07-29T00:43:39;13.41;79.15
68128;SHT30;54931;52.098;21.006;2022-07-29T00:46:07;13.45;79.08
68128;SHT30;54931;52.098;21.006;2022-07-29T00:48:34;13.45;79.10
68128;SHT30;54931;52.098;21.006;2022-07-29T00:51:02;13.44;79.19
68128;SHT30;54931;52.098;21.006;2022-07-29T00:53:32;13.45;79.17
68128;SHT30;54931;52.098;21.006;2022-07-29T00:56:00;13.46;79.05
68128;SHT30;54931;52.098;21.006;2022-07-29T00:58:27;13.46;79.02
68128;SHT30;54931;52.098;21.006;2022-07-29T01:00:54;13.40;79.11
68128;SHT30;54931;52.098;21.006;2022-07-29T01:03:22;13.37;79.14
68128;SHT30;54931;52.098;21.006;2022-07-29T01:05:49;13.40;79.17
68128;SHT30;54931;52.098;21.006;2022-07-29T01:08:17;13.48;79.09
68128;SHT30;54931;52.098;21.006;2022-07-29T01:10:59;13.51;79.07
68128;SHT30;54931;52.098;21.006;2022-07-29T01:13:29;13.49;79.01
68128;SHT30;54931;52.098;21.006;2022-07-29T01:16:02;13.49;79.00
68128;SHT30;54931;52.098;21.006;2022-07-29T01:18:41;13.54;78.87
68128;SHT30;54931;52.098;21.006;2022-07-29T01:30:53;13.56;78.60
68128;SHT30;54931;52.098;21.006;2022-07-29T01:33:22;13.60;78.52
68128;SHT30;54931;52.098;21.006;2022-07-29T01:36:13;13.60;78.50
68128;SHT30;54931;52.098;21.006;2022-07-29T01:38:54;13.54;78.52
68128;SHT30;54931;52.098;21.006;2022-07-29T01:41:34;13.52;78.55
68128;SHT30;54931;52.098;21.006;2022-07-29T01:44:22;13.53;78.53
68128;SHT30;54931;52.098;21.006;2022-07-29T01:47:02;13.50;78.54
68128;SHT30;54931;52.098;21.006;2022-07-29T01:49:40;13.46;78.71
68128;SHT30;54931;52.098;21.006;2022-07-29T01:52:16;13.42;78.73
68128;SHT30;54931;52.098;21.006;2022-07-29T01:54:53;13.45;78.70
68128;SHT30;54931;52.098;21.006;2022-07-29T01:57:26;13.45;78.69
68128;SHT30;54931;52.098;21.006;2022-07-29T01:59:57;13.42;78.76
68128;SHT30;54931;52.098;21.006;2022-07-29T02:02:27;13.37;78.87
68128;SHT30;54931;52.098;21.006;2022-07-29T02:04:58;13.38;78.80
68128;SHT30;54931;52.098;21.006;2022-07-29T02:07:29;13.40;78.71
68128;SHT30;54931;52.098;21.006;2022-07-29T02:10:00;13.40;78.71
68128;SHT30;54931;52.098;21.006;2022-07-29T02:12:31;13.35;78.74
68128;SHT30;54931;52.098;21.006;2022-07-29T02:15:00;13.25;78.96
68128;SHT30;54931;52.098;21.006;2022-07-29T02:17:35;13.23;79.08
68128;SHT30;54931;52.098;21.006;2022-07-29T02:20:15;13.25;79.06
68128;SHT30;54931;52.098;21.006;2022-07-29T02:22:43;13.28;79.19
68128;SHT30;54931;52.098;21.006;2022-07-29T02:25:13;13.26;79.21
68128;SHT30;54931;52.098;21.006;2022-07-29T02:27:42;13.18;79.31
68128;SHT30;54931;52.098;21.006;2022-07-29T02:30:12;13.15;79.43
68128;SHT30;54931;52.098;21.006;2022-07-29T02:32:40;13.20;79.57
68128;SHT30;54931;52.098;21.006;2022-07-29T02:35:11;13.20;79.51
68128;SHT30;54931;52.098;21.006;2022-07-29T02:37:42;13.16;79.59
68128;SHT30;54931;52.098;21.006;2022-07-29T02:40:33;13.12;79.81
68128;SHT30;54931;52.098;21.006;2022-07-29T02:43:04;13.12;79.83
68128;SHT30;54931;52.098;21.006;2022-07-29T02:45:34;13.16;79.76
68128;SHT30;54931;52.098;21.006;2022-07-29T02:48:05;13.18;79.85
68128;SHT30;54931;52.098;21.006;2022-07-29T02:50:42;13.14;79.85
68128;SHT30;54931;52.098;21.006;2022-07-29T02:53:23;13.08;80.04
68128;SHT30;54931;52.098;21.006;2022-07-29T02:58:32;13.10;80.21
68128;SHT30;54931;52.098;21.006;2022-07-29T03:01:24;13.12;80.41
68128;SHT30;54931;52.098;21.006;2022-07-29T03:03:59;13.10;80.54
68128;SHT30;54931;52.098;21.006;2022-07-29T03:06:31;13.13;80.60
68128;SHT30;54931;52.098;21.006;2022-07-29T03:09:01;13.19;80.66
68128;SHT30;54931;52.098;21.006;2022-07-29T03:11:29;13.28;80.62
68128;SHT30;54931;52.098;21.006;2022-07-29T03:13:57;13.35;80.64
68128;SHT30;54931;52.098;21.006;2022-07-29T03:16:24;13.38;80.74
68128;SHT30;54931;52.098;21.006;2022-07-29T03:18:53;13.40;80.64
68128;SHT30;54931;52.098;21.006;2022-07-29T03:21:20;13.45;80.73
68128;SHT30;54931;52.098;21.006;2022-07-29T03:23:48;13.53;80.68
68128;SHT30;54931;52.098;21.006;2022-07-29T03:26:15;13.63;80.65
68128;SHT30;54931;52.098;21.006;2022-07-29T03:28:43;13.72;80.58
68128;SHT30;54931;52.098;21.006;2022-07-29T03:31:10;13.75;80.63
68128;SHT30;54931;52.098;21.006;2022-07-29T03:33:37;13.77;80.66
68128;SHT30;54931;52.098;21.006;2022-07-29T03:36:04;13.88;80.64
68128;SHT30;54931;52.098;21.006;2022-07-29T03:38:33;14.00;80.61
68128;SHT30;54931;52.098;21.006;2022-07-29T03:41:05;14.09;80.34
68128;SHT30;54931;52.098;21.006;2022-07-29T03:43:38;14.18;80.07
68128;SHT30;54931;52.098;21.006;2022-07-29T03:46:10;14.19;80.03
68128;SHT30;54931;52.098;21.006;2022-07-29T03:48:44;14.19;80.11
68128;SHT30;54931;52.098;21.006;2022-07-29T03:51:16;14.27;80.08
68128;SHT30;54931;52.098;21.006;2022-07-29T03:53:43;14.39;79.94
68128;SHT30;54931;52.098;21.006;2022-07-29T03:56:11;14.50;79.93
68128;SHT30;54931;52.098;21.006;2022-07-29T03:58:46;14.58;79.91
68128;SHT30;54931;52.098;21.006;2022-07-29T04:01:19;14.64;79.97
68128;SHT30;54931;52.098;21.006;2022-07-29T04:03:47;14.68;79.95
68128;SHT30;54931;52.098;21.006;2022-07-29T04:06:15;14.78;79.88
68128;SHT30;54931;52.098;21.006;2022-07-29T04:08:43;14.92;79.70
68128;SHT30;54931;52.098;21.006;2022-07-29T04:11:10;15.05;79.43
68128;SHT30;54931;52.098;21.006;2022-07-29T04:13:37;15.14;79.22
68128;SHT30;54931;52.098;21.006;2022-07-29T04:16:05;15.23;79.09
68128;SHT30;54931;52.098;21.006;2022-07-29T04:18:32;15.41;78.82
68128;SHT30;54931;52.098;21.006;2022-07-29T04:20:59;15.73;78.32
68128;SHT30;54931;52.098;21.006;2022-07-29T04:23:29;16.12;77.61
68128;SHT30;54931;52.098;21.006;2022-07-29T04:26:00;16.48;76.01
68128;SHT30;54931;52.098;21.006;2022-07-29T04:28:27;16.74;75.45
68128;SHT30;54931;52.098;21.006;2022-07-29T04:30:55;16.97;74.33
68128;SHT30;54931;52.098;21.006;2022-07-29T04:33:22;17.18;73.62
68128;SHT30;54931;52.098;21.006;2022-07-29T04:35:49;17.47;72.81
68128;SHT30;54931;52.098;21.006;2022-07-29T04:38:16;17.79;72.32
68128;SHT30;54931;52.098;21.006;2022-07-29T04:40:44;18.07;71.72
68128;SHT30;54931;52.098;21.006;2022-07-29T04:43:11;18.33;70.33
68128;SHT30;54931;52.098;21.006;2022-07-29T04:45:38;18.46;69.52
68128;SHT30;54931;52.098;21.006;2022-07-29T04:48:06;18.64;68.45
68128;SHT30;54931;52.098;21.006;2022-07-29T04:50:34;18.83;67.96
68128;SHT30;54931;52.098;21.006;2022-07-29T04:53:04;19.02;67.70
68128;SHT30;54931;52.098;21.006;2022-07-29T04:55:31;19.18;66.85
68128;SHT30;54931;52.098;21.006;2022-07-29T04:57:59;19.23;66.30
68128;SHT30;54931;52.098;21.006;2022-07-29T05:00:26;19.39;66.14
68128;SHT30;54931;52.098;21.006;2022-07-29T05:02:54;19.59;65.18
68128;SHT30;54931;52.098;21.006;2022-07-29T05:05:24;19.81;64.92
68128;SHT30;54931;52.098;21.006;2022-07-29T05:07:51;20.03;64.39
68128;SHT30;54931;52.098;21.006;2022-07-29T05:10:19;20.19;63.46
68128;SHT30;54931;52.098;21.006;2022-07-29T05:12:46;20.25;62.81
68128;SHT30;54931;52.098;21.006;2022-07-29T05:15:14;20.23;62.28
68128;SHT30;54931;52.098;21.006;2022-07-29T05:17:41;20.28;62.51
68128;SHT30;54931;52.098;21.006;2022-07-29T05:20:09;20.45;62.01
68128;SHT30;54931;52.098;21.006;2022-07-29T05:22:36;20.57;61.97
68128;SHT30;54931;52.098;21.006;2022-07-29T05:25:04;20.67;61.27
68128;SHT30;54931;52.098;21.006;2022-07-29T05:27:32;20.84;61.57
68128;SHT30;54931;52.098;21.006;2022-07-29T05:29:59;20.83;60.71
68128;SHT30;54931;52.098;21.006;2022-07-29T05:32:26;21.16;60.90
68128;SHT30;54931;52.098;21.006;2022-07-29T05:34:53;21.43;59.70
68128;SHT30;54931;52.098;21.006;2022-07-29T05:37:21;21.55;59.60
68128;SHT30;54931;52.098;21.006;2022-07-29T05:39:48;21.67;58.66
68128;SHT30;54931;52.098;21.006;2022-07-29T05:42:16;21.73;59.16
68128;SHT30;54931;52.098;21.006;2022-07-29T05:44:43;21.83;58.45
68128;SHT30;54931;52.098;21.006;2022-07-29T05:47:10;21.96;59.00
68128;SHT30;54931;52.098;21.006;2022-07-29T05:49:38;22.00;58.36
68128;SHT30;54931;52.098;21.006;2022-07-29T05:52:05;22.17;58.23
68128;SHT30;54931;52.098;21.006;2022-07-29T05:54:32;22.33;57.82
68128;SHT30;54931;52.098;21.006;2022-07-29T05:57:00;22.42;56.61
68128;SHT30;54931;52.098;21.006;2022-07-29T05:59:29;22.40;56.65
68128;SHT30;54931;52.098;21.006;2022-07-29T06:01:57;22.49;56.58
68128;SHT30;54931;52.098;21.006;2022-07-29T06:04:24;22.48;55.95
68128;SHT30;54931;52.098;21.006;2022-07-29T06:06:52;22.59;56.12
68128;SHT30;54931;52.098;21.006;2022-07-29T06:09:19;22.51;55.56
68128;SHT30;54931;52.098;21.006;2022-07-29T06:11:46;22.50;56.08
68128;SHT30;54931;52.098;21.006;2022-07-29T06:14:13;22.60;55.75
68128;SHT30;54931;52.098;21.006;2022-07-29T06:16:41;22.58;55.57
68128;SHT30;54931;52.098;21.006;2022-07-29T06:19:09;23.03;55.33
68128;SHT30;54931;52.098;21.006;2022-07-29T06:21:36;23.07;54.03
68128;SHT30;54931;52.098;21.006;2022-07-29T06:24:13;22.98;53.55
68128;SHT30;54931;52.098;21.006;2022-07-29T06:26:42;23.03;54.01
68128;SHT30;54931;52.098;21.006;2022-07-29T06:29:10;23.06;53.45
68128;SHT30;54931;52.098;21.006;2022-07-29T06:31:38;23.25;54.07
68128;SHT30;54931;52.098;21.006;2022-07-29T06:34:05;23.50;53.44
68128;SHT30;54931;52.098;21.006;2022-07-29T06:36:36;23.66;53.08
68128;SHT30;54931;52.098;21.006;2022-07-29T06:39:05;23.77;53.08
68128;SHT30;54931;52.098;21.006;2022-07-29T06:41:33;23.87;52.30
68128;SHT30;54931;52.098;21.006;2022-07-29T06:44:01;23.99;52.47
68128;SHT30;54931;52.098;21.006;2022-07-29T06:46:30;24.21;52.12
68128;SHT30;54931;52.098;21.006;2022-07-29T06:48:59;24.32;51.32
68128;SHT30;54931;52.098;21.006;2022-07-29T06:51:28;24.34;50.71
68128;SHT30;54931;52.098;21.006;2022-07-29T06:53:55;24.29;50.75
68128;SHT30;54931;52.098;21.006;2022-07-29T06:56:27;24.28;50.64
68128;SHT30;54931;52.098;21.006;2022-07-29T06:58:54;24.47;51.28
68128;SHT30;54931;52.098;21.006;2022-07-29T07:01:22;24.58;49.52
68128;SHT30;54931;52.098;21.006;2022-07-29T07:03:49;24.47;49.47
68128;SHT30;54931;52.098;21.006;2022-07-29T07:06:16;24.42;49.42
68128;SHT30;54931;52.098;21.006;2022-07-29T07:08:43;24.46;49.41
68128;SHT30;54931;52.098;21.006;2022-07-29T07:11:11;24.50;49.43
68128;SHT30;54931;52.098;21.006;2022-07-29T07:13:39;24.50;49.35
68128;SHT30;54931;52.098;21.006;2022-07-29T07:16:06;24.66;49.70
68128;SHT30;54931;52.098;21.006;2022-07-29T07:18:33;24.87;49.57
68128;SHT30;54931;52.098;21.006;2022-07-29T07:21:00;24.90;48.71
68128;SHT30;54931;52.098;21.006;2022-07-29T07:23:28;24.89;48.41
68128;SHT30;54931;52.098;21.006;2022-07-29T07:25:55;24.97;48.75
68128;SHT30;54931;52.098;21.006;2022-07-29T07:28:22;25.16;49.16
68128;SHT30;54931;52.098;21.006;2022-07-29T07:30:49;25.17;47.96
68128;SHT30;54931;52.098;21.006;2022-07-29T07:33:17;25.16;47.90
68128;SHT30;54931;52.098;21.006;2022-07-29T07:35:44;25.21;48.19
68128;SHT30;54931;52.098;21.006;2022-07-29T07:38:12;25.31;48.60
68128;SHT30;54931;52.098;21.006;2022-07-29T07:40:40;25.24;48.03
68128;SHT30;54931;52.098;21.006;2022-07-29T07:43:08;25.31;48.92
68128;SHT30;54931;52.098;21.006;2022-07-29T07:45:35;25.62;47.89
68128;SHT30;54931;52.098;21.006;2022-07-29T07:48:03;25.72;47.47
68128;SHT30;54931;52.098;21.006;2022-07-29T07:50:31;25.70;47.33
68128;SHT30;54931;52.098;21.006;2022-07-29T07:52:59;25.87;46.97
68128;SHT30;54931;52.098;21.006;2022-07-29T07:55:28;25.96;46.28
68128;SHT30;54931;52.098;21.006;2022-07-29T07:57:55;25.91;45.52
68128;SHT30;54931;52.098;21.006;2022-07-29T08:00:22;25.69;46.32
68128;SHT30;54931;52.098;21.006;2022-07-29T08:02:50;25.80;46.20
68128;SHT30;54931;52.098;21.006;2022-07-29T08:05:17;25.98;47.03
68128;SHT30;54931;52.098;21.006;2022-07-29T08:07:45;26.20;46.28
68128;SHT30;54931;52.098;21.006;2022-07-29T08:10:14;26.37;46.59
68128;SHT30;54931;52.098;21.006;2022-07-29T08:13:05;26.50;45.19
68128;SHT30;54931;52.098;21.006;2022-07-29T08:15:34;26.66;44.68
68128;SHT30;54931;52.098;21.006;2022-07-29T08:18:02;26.69;43.33
68128;SHT30;54931;52.098;21.006;2022-07-29T08:20:30;26.58;44.06
68128;SHT30;54931;52.098;21.006;2022-07-29T08:23:00;26.62;43.50
68128;SHT30;54931;52.098;21.006;2022-07-29T08:25:28;26.46;42.83
68128;SHT30;54931;52.098;21.006;2022-07-29T08:27:57;26.27;43.23
68128;SHT30;54931;52.098;21.006;2022-07-29T08:30:24;26.41;43.81
68128;SHT30;54931;52.098;21.006;2022-07-29T08:32:52;26.61;43.74
68128;SHT30;54931;52.098;21.006;2022-07-29T08:35:20;26.66;44.00
68128;SHT30;54931;52.098;21.006;2022-07-29T08:37:49;26.88;43.61
68128;SHT30;54931;52.098;21.006;2022-07-29T08:40:18;27.03;43.07
68128;SHT30;54931;52.098;21.006;2022-07-29T08:42:47;27.22;42.47
68128;SHT30;54931;52.098;21.006;2022-07-29T08:45:21;27.33;40.91
68128;SHT30;54931;52.098;21.006;2022-07-29T08:47:53;27.15;40.79
68128;SHT30;54931;52.098;21.006;2022-07-29T08:50:26;26.97;41.49
68128;SHT30;54931;52.098;21.006;2022-07-29T08:52:54;27.03;41.56
68128;SHT30;54931;52.098;21.006;2022-07-29T08:55:55;27.19;41.05
68128;SHT30;54931;52.098;21.006;2022-07-29T08:58:25;27.26;40.87
68128;SHT30;54931;52.098;21.006;2022-07-29T09:00:57;27.32;41.02
68128;SHT30;54931;52.098;21.006;2022-07-29T09:03:30;27.47;40.16
68128;SHT30;54931;52.098;21.006;2022-07-29T09:06:01;27.61;40.84
68128;SHT30;54931;52.098;21.006;2022-07-29T09:08:33;27.80;40.35
68128;SHT30;54931;52.098;21.006;2022-07-29T09:11:00;27.82;38.93
68128;SHT30;54931;52.098;21.006;2022-07-29T09:13:29;27.75;39.26
68128;SHT30;54931;52.098;21.006;2022-07-29T09:15:57;27.61;38.31
68128;SHT30;54931;52.098;21.006;2022-07-29T09:18:34;27.74;39.31
68128;SHT30;54931;52.098;21.006;2022-07-29T09:21:10;28.04;38.77
68128;SHT30;54931;52.098;21.006;2022-07-29T09:26:42;27.65;37.95
68128;SHT30;54931;52.098;21.006;2022-07-29T09:31:45;27.65;37.64
68128;SHT30;54931;52.098;21.006;2022-07-29T09:34:17;27.73;37.75
68128;SHT30;54931;52.098;21.006;2022-07-29T09:36:51;27.74;37.05
68128;SHT30;54931;52.098;21.006;2022-07-29T09:39:28;27.96;38.08
68128;SHT30;54931;52.098;21.006;2022-07-29T09:42:12;28.05;36.98
68128;SHT30;54931;52.098;21.006;2022-07-29T09:44:44;28.14;37.08
68128;SHT30;54931;52.098;21.006;2022-07-29T09:47:17;28.35;36.70
68128;SHT30;54931;52.098;21.006;2022-07-29T09:49:57;28.33;36.94
68128;SHT30;54931;52.098;21.006;2022-07-29T09:52:27;28.40;36.81
68128;SHT30;54931;52.098;21.006;2022-07-29T09:55:06;28.56;37.29
68128;SHT30;54931;52.098;21.006;2022-07-29T09:57:36;28.42;35.76
68128;SHT30;54931;52.098;21.006;2022-07-29T10:00:05;27.98;36.24
68128;SHT30;54931;52.098;21.006;2022-07-29T10:02:38;27.60;36.70
68128;SHT30;54931;52.098;21.006;2022-07-29T10:05:16;27.41;37.35
68128;SHT30;54931;52.098;21.006;2022-07-29T10:07:51;27.26;38.72
68128;SHT30;54931;52.098;21.006;2022-07-29T10:10:25;27.05;40.03
68128;SHT30;54931;52.098;21.006;2022-07-29T10:12:54;27.05;39.43
68128;SHT30;54931;52.098;21.006;2022-07-29T10:15:28;26.88;38.54
68128;SHT30;54931;52.098;21.006;2022-07-29T10:17:59;26.64;39.33
68128;SHT30;54931;52.098;21.006;2022-07-29T10:20:27;26.43;39.32
68128;SHT30;54931;52.098;21.006;2022-07-29T10:22:55;26.33;39.39
68128;SHT30;54931;52.098;21.006;2022-07-29T10:25:22;26.24;39.73
68128;SHT30;54931;52.098;21.006;2022-07-29T10:27:51;26.29;40.21
68128;SHT30;54931;52.098;21.006;2022-07-29T10:30:21;26.40;39.96
68128;SHT30;54931;52.098;21.006;2022-07-29T10:39:22;27.64;38.76
68128;SHT30;54931;52.098;21.006;2022-07-29T10:44:24;27.78;37.95
68128;SHT30;54931;52.098;21.006;2022-07-29T10:46:53;27.72;37.59
68128;SHT30;54931;52.098;21.006;2022-07-29T10:49:23;27.75;38.16
68128;SHT30;54931;52.098;21.006;2022-07-29T10:51:54;27.77;37.66
68128;SHT30;54931;52.098;21.006;2022-07-29T10:59:40;27.74;37.00
68128;SHT30;54931;52.098;21.006;2022-07-29T11:07:35;27.13;38.08
68128;SHT30;54931;52.098;21.006;2022-07-29T11:15:05;26.94;37.83
68128;SHT30;54931;52.098;21.006;2022-07-29T11:23:32;27.05;38.39
68128;SHT30;54931;52.098;21.006;2022-07-29T11:31:33;26.80;38.79
68128;SHT30;54931;52.098;21.006;2022-07-29T11:34:20;26.58;38.61
68128;SHT30;54931;52.098;21.006;2022-07-29T11:39:37;26.61;39.75
68128;SHT30;54931;52.098;21.006;2022-07-29T11:44:57;26.80;38.08
68128;SHT30;54931;52.098;21.006;2022-07-29T11:50:13;26.78;37.82
68128;SHT30;54931;52.098;21.006;2022-07-29T11:52:55;26.81;37.61
68128;SHT30;54931;52.098;21.006;2022-07-29T11:55:23;26.84;38.02
68128;SHT30;54931;52.098;21.006;2022-07-29T11:57:53;26.93;38.48
68128;SHT30;54931;52.098;21.006;2022-07-29T12:00:32;27.08;38.26
68128;SHT30;54931;52.098;21.006;2022-07-29T12:03:05;26.95;37.62
68128;SHT30;54931;52.098;21.006;2022-07-29T12:10:49;26.52;37.79
68128;SHT30;54931;52.098;21.006;2022-07-29T12:13:19;26.46;37.94
68128;SHT30;54931;52.098;21.006;2022-07-29T12:15:55;26.33;37.51
68128;SHT30;54931;52.098;21.006;2022-07-29T12:18:25;26.31;38.05
68128;SHT30;54931;52.098;21.006;2022-07-29T12:20:57;26.56;37.85
68128;SHT30;54931;52.098;21.006;2022-07-29T12:23:31;26.73;37.97
68128;SHT30;54931;52.098;21.006;2022-07-29T12:26:00;26.63;36.77
68128;SHT30;54931;52.098;21.006;2022-07-29T12:28:36;26.50;37.24
68128;SHT30;54931;52.098;21.006;2022-07-29T12:31:05;26.58;38.02
68128;SHT30;54931;52.098;21.006;2022-07-29T12:33:40;26.61;37.81
68128;SHT30;54931;52.098;21.006;2022-07-29T12:36:08;26.78;38.18
68128;SHT30;54931;52.098;21.006;2022-07-29T12:38:36;27.02;38.25
68128;SHT30;54931;52.098;21.006;2022-07-29T12:41:07;27.22;37.65
68128;SHT30;54931;52.098;21.006;2022-07-29T12:43:36;27.34;36.50
68128;SHT30;54931;52.098;21.006;2022-07-29T12:46:13;27.22;36.39
68128;SHT30;54931;52.098;21.006;2022-07-29T12:48:42;27.35;35.65
68128;SHT30;54931;52.098;21.006;2022-07-29T12:51:11;27.37;35.39
68128;SHT30;54931;52.098;21.006;2022-07-29T12:53:40;27.24;35.43
68128;SHT30;54931;52.098;21.006;2022-07-29T12:56:27;27.12;36.15
68128;SHT30;54931;52.098;21.006;2022-07-29T12:58:55;27.00;36.59
68128;SHT30;54931;52.098;21.006;2022-07-29T13:01:22;26.96;36.78
68128;SHT30;54931;52.098;21.006;2022-07-29T13:03:51;26.93;36.33
68128;SHT30;54931;52.098;21.006;2022-07-29T13:06:30;27.00;36.26
68128;SHT30;54931;52.098;21.006;2022-07-29T13:09:00;27.12;36.32
68128;SHT30;54931;52.098;21.006;2022-07-29T13:11:32;27.12;36.15
68128;SHT30;54931;52.098;21.006;2022-07-29T13:14:01;27.13;35.66
68128;SHT30;54931;52.098;21.006;2022-07-29T13:16:29;27.08;35.55
68128;SHT30;54931;52.098;21.006;2022-07-29T13:19:03;27.09;35.80
68128;SHT30;54931;52.098;21.006;2022-07-29T13:21:39;26.91;35.27
68128;SHT30;54931;52.098;21.006;2022-07-29T13:24:07;26.71;35.24
68128;SHT30;54931;52.098;21.006;2022-07-29T13:26:39;26.70;35.93
68128;SHT30;54931;52.098;21.006;2022-07-29T13:29:07;26.93;35.68
68128;SHT30;54931;52.098;21.006;2022-07-29T13:31:35;27.07;35.10
68128;SHT30;54931;52.098;21.006;2022-07-29T13:34:02;27.19;35.23
68128;SHT30;54931;52.098;21.006;2022-07-29T13:36:30;27.19;35.02
68128;SHT30;54931;52.098;21.006;2022-07-29T13:38:58;27.20;35.18
68128;SHT30;54931;52.098;21.006;2022-07-29T13:41:27;27.15;35.49
68128;SHT30;54931;52.098;21.006;2022-07-29T13:43:56;27.11;35.61
68128;SHT30;54931;52.098;21.006;2022-07-29T13:46:23;27.06;35.22
68128;SHT30;54931;52.098;21.006;2022-07-29T13:48:51;27.08;35.67
68128;SHT30;54931;52.098;21.006;2022-07-29T13:51:18;27.02;34.78
68128;SHT30;54931;52.098;21.006;2022-07-29T13:53:45;27.05;35.47
68128;SHT30;54931;52.098;21.006;2022-07-29T13:56:13;27.20;35.68
68128;SHT30;54931;52.098;21.006;2022-07-29T13:58:40;27.27;34.92
68128;SHT30;54931;52.098;21.006;2022-07-29T14:01:08;27.20;34.46
68128;SHT30;54931;52.098;21.006;2022-07-29T14:03:35;26.98;34.46
68128;SHT30;54931;52.098;21.006;2022-07-29T14:06:07;26.88;34.94
68128;SHT30;54931;52.098;21.006;2022-07-29T14:08:34;26.90;35.01
68128;SHT30;54931;52.098;21.006;2022-07-29T14:11:01;26.94;35.54
68128;SHT30;54931;52.098;21.006;2022-07-29T14:13:29;27.01;35.32
68128;SHT30;54931;52.098;21.006;2022-07-29T14:15:57;27.16;35.78
68128;SHT30;54931;52.098;21.006;2022-07-29T14:18:24;27.27;34.68
68128;SHT30;54931;52.098;21.006;2022-07-29T14:20:52;27.23;34.72
68128;SHT30;54931;52.098;21.006;2022-07-29T14:23:20;27.16;34.58
68128;SHT30;54931;52.098;21.006;2022-07-29T14:25:47;27.08;35.06
68128;SHT30;54931;52.098;21.006;2022-07-29T14:28:15;27.03;35.20
68128;SHT30;54931;52.098;21.006;2022-07-29T14:30:43;27.03;35.57
68128;SHT30;54931;52.098;21.006;2022-07-29T14:33:11;26.94;35.45
68128;SHT30;54931;52.098;21.006;2022-07-29T14:35:38;26.89;35.58
68128;SHT30;54931;52.098;21.006;2022-07-29T14:38:07;26.87;35.98
68128;SHT30;54931;52.098;21.006;2022-07-29T14:40:34;26.89;35.00
68128;SHT30;54931;52.098;21.006;2022-07-29T14:43:02;26.80;35.14
68128;SHT30;54931;52.098;21.006;2022-07-29T14:45:31;26.62;35.50
68128;SHT30;54931;52.098;21.006;2022-07-29T14:47:59;26.50;36.07
68128;SHT30;54931;52.098;21.006;2022-07-29T14:50:26;26.54;36.87
68128;SHT30;54931;52.098;21.006;2022-07-29T14:52:54;26.65;36.94
68128;SHT30;54931;52.098;21.006;2022-07-29T14:55:21;26.78;36.90
68128;SHT30;54931;52.098;21.006;2022-07-29T14:57:49;26.86;36.61
68128;SHT30;54931;52.098;21.006;2022-07-29T15:00:17;26.94;36.90
68128;SHT30;54931;52.098;21.006;2022-07-29T15:02:45;27.15;36.19
68128;SHT30;54931;52.098;21.006;2022-07-29T15:05:13;27.13;35.27
68128;SHT30;54931;52.098;21.006;2022-07-29T15:07:41;27.34;35.58
68128;SHT30;54931;52.098;21.006;2022-07-29T15:10:09;27.63;35.26
68128;SHT30;54931;52.098;21.006;2022-07-29T15:12:37;28.02;34.66
68128;SHT30;54931;52.098;21.006;2022-07-29T15:15:05;28.01;33.58
68128;SHT30;54931;52.098;21.006;2022-07-29T15:17:33;27.98;34.33
68128;SHT30;54931;52.098;21.006;2022-07-29T15:20:01;28.06;34.15
68128;SHT30;54931;52.098;21.006;2022-07-29T15:22:29;28.08;33.68
68128;SHT30;54931;52.098;21.006;2022-07-29T15:24:57;28.10;33.80
68128;SHT30;54931;52.098;21.006;2022-07-29T15:27:25;28.15;33.50
68128;SHT30;54931;52.098;21.006;2022-07-29T15:29:53;28.37;33.07
68128;SHT30;54931;52.098;21.006;2022-07-29T15:32:20;28.70;32.70
68128;SHT30;54931;52.098;21.006;2022-07-29T15:34:48;28.96;32.63
68128;SHT30;54931;52.098;21.006;2022-07-29T15:37:16;29.03;32.78
68128;SHT30;54931;52.098;21.006;2022-07-29T15:39:43;29.34;32.37
68128;SHT30;54931;52.098;21.006;2022-07-29T15:42:11;29.58;31.36
68128;SHT30;54931;52.098;21.006;2022-07-29T15:44:38;29.79;30.73
68128;SHT30;54931;52.098;21.006;2022-07-29T15:47:06;29.94;30.64
68128;SHT30;54931;52.098;21.006;2022-07-29T15:49:38;30.00;30.25
68128;SHT30;54931;52.098;21.006;2022-07-29T15:52:08;29.89;30.20
68128;SHT30;54931;52.098;21.006;2022-07-29T15:54:37;29.88;30.34
68128;SHT30;54931;52.098;21.006;2022-07-29T15:57:08;29.92;30.64
68128;SHT30;54931;52.098;21.006;2022-07-29T15:59:36;29.91;31.07
68128;SHT30;54931;52.098;21.006;2022-07-29T16:02:03;29.82;30.04
68128;SHT30;54931;52.098;21.006;2022-07-29T16:04:31;29.80;30.86
68128;SHT30;54931;52.098;21.006;2022-07-29T16:06:59;29.95;30.66
68128;SHT30;54931;52.098;21.006;2022-07-29T16:09:26;29.91;30.52
68128;SHT30;54931;52.098;21.006;2022-07-29T16:11:54;29.98;30.22
68128;SHT30;54931;52.098;21.006;2022-07-29T16:14:22;30.05;30.07
68128;SHT30;54931;52.098;21.006;2022-07-29T16:16:49;29.85;30.39
68128;SHT30;54931;52.098;21.006;2022-07-29T16:19:17;29.66;30.59
68128;SHT30;54931;52.098;21.006;2022-07-29T16:21:44;29.21;31.06
68128;SHT30;54931;52.098;21.006;2022-07-29T16:24:12;28.73;31.81
68128;SHT30;54931;52.098;21.006;2022-07-29T16:26:39;28.35;32.61
68128;SHT30;54931;52.098;21.006;2022-07-29T16:29:06;27.92;33.15
68128;SHT30;54931;52.098;21.006;2022-07-29T16:31:34;27.52;33.87
68128;SHT30;54931;52.098;21.006;2022-07-29T16:34:01;27.17;34.36
68128;SHT30;54931;52.098;21.006;2022-07-29T16:36:28;26.87;34.88
68128;SHT30;54931;52.098;21.006;2022-07-29T16:38:56;26.60;35.36